createdAt,value
2022-10-16T00:01:14.050Z,16.23
2022-10-16T00:04:01.031Z,15.80
2022-10-16T00:06:47.706Z,15.65
2022-10-16T00:09:32.754Z,14.77
2022-10-16T00:12:18.160Z,13.27
2022-10-16T00:15:03.171Z,15.05
2022-10-16T00:17:48.544Z,15.32
2022-10-16T00:20:37.148Z,16.35
2022-10-16T00:23:22.986Z,14.95
2022-10-16T00:26:11.711Z,16.42
2022-10-16T00:28:57.229Z,17.02
2022-10-16T00:31:42.279Z,18.38
2022-10-16T00:34:27.242Z,16.55
2022-10-16T00:37:12.829Z,14.57
2022-10-16T00:39:57.986Z,16.35
2022-10-16T00:42:42.958Z,16.13
2022-10-16T00:45:28.172Z,16.02
2022-10-16T00:48:14.167Z,15.88
2022-10-16T00:50:59.830Z,17.08
2022-10-16T00:53:45.767Z,18.17
2022-10-16T00:56:31.048Z,14.70
2022-10-16T00:59:22.077Z,17.02
2022-10-16T01:02:09.497Z,16.88
2022-10-16T01:04:55.307Z,20.05
2022-10-16T01:07:53.928Z,15.52
2022-10-16T01:10:46.361Z,18.83
2022-10-16T01:13:37.417Z,16.02
2022-10-16T01:16:38.541Z,15.07
2022-10-16T01:19:26.714Z,19.85
2022-10-16T01:22:11.954Z,15.45
2022-10-16T01:25:02.142Z,16.08
2022-10-16T01:27:49.496Z,16.88
2022-10-16T01:30:36.633Z,18.85
2022-10-16T01:33:28.233Z,17.23
2022-10-16T01:36:18.121Z,16.17
2022-10-16T01:39:04.070Z,17.05
2022-10-16T01:42:02.191Z,16.55
2022-10-16T01:44:49.472Z,15.70
2022-10-16T01:47:37.598Z,14.35
2022-10-16T01:50:23.656Z,16.55
2022-10-16T01:53:12.465Z,18.00
2022-10-16T01:56:00.185Z,14.38
2022-10-16T01:58:56.393Z,16.85
2022-10-16T02:01:46.081Z,17.15
2022-10-16T02:04:46.202Z,17.08
2022-10-16T02:07:31.180Z,17.25
2022-10-16T02:10:16.846Z,17.15
2022-10-16T02:13:26.353Z,20.88
2022-10-16T02:16:12.866Z,16.23
2022-10-16T02:18:57.641Z,17.60
2022-10-16T02:21:59.062Z,17.50
2022-10-16T02:25:03.469Z,18.10
2022-10-16T02:28:01.768Z,17.80
2022-10-16T02:30:59.250Z,18.75
2022-10-16T02:33:47.128Z,15.18
2022-10-16T02:36:34.618Z,18.23
2022-10-16T02:39:21.243Z,17.65
2022-10-16T02:42:11.287Z,15.77
2022-10-16T02:44:56.543Z,15.80
2022-10-16T02:47:41.513Z,15.95
2022-10-16T02:50:26.232Z,16.17
2022-10-16T02:53:11.170Z,15.27
2022-10-16T02:55:56.104Z,15.23
2022-10-16T02:58:41.052Z,18.63
2022-10-16T03:01:26.160Z,16.45
2022-10-16T03:04:11.282Z,17.67
2022-10-16T03:06:57.685Z,15.18
2022-10-16T03:09:42.463Z,14.45
2022-10-16T03:12:29.431Z,15.30
2022-10-16T03:15:14.320Z,15.35
2022-10-16T03:18:00.350Z,14.77
2022-10-16T03:20:45.677Z,18.50
2022-10-16T03:26:15.734Z,15.15
2022-10-16T03:29:00.593Z,14.48
2022-10-16T03:31:45.980Z,15.43
2022-10-16T03:34:31.121Z,13.75
2022-10-16T03:37:16.028Z,15.07
2022-10-16T03:40:01.719Z,14.45
2022-10-16T03:42:46.799Z,16.10
2022-10-16T03:45:31.731Z,15.95
2022-10-16T03:48:16.521Z,13.27
2022-10-16T03:51:01.499Z,13.07
2022-10-16T03:53:46.392Z,14.32
2022-10-16T03:56:31.832Z,13.73
2022-10-16T03:59:16.805Z,13.68
2022-10-16T04:02:01.664Z,15.07
2022-10-16T04:04:46.709Z,11.77
2022-10-16T04:07:31.699Z,10.35
2022-10-16T04:10:16.884Z,11.57
2022-10-16T04:13:01.913Z,11.27
2022-10-16T04:15:46.814Z,12.43
2022-10-16T04:18:32.046Z,11.23
2022-10-16T04:21:17.150Z,12.32
2022-10-16T04:24:02.031Z,10.40
2022-10-16T04:26:47.033Z,14.32
2022-10-16T04:29:32.310Z,12.60
2022-10-16T04:32:17.234Z,12.18
2022-10-16T04:35:02.122Z,9.48
2022-10-16T04:37:47.561Z,11.00
2022-10-16T04:40:33.110Z,8.55
2022-10-16T04:43:18.376Z,9.60
2022-10-16T04:46:03.736Z,11.77
2022-10-16T04:48:49.135Z,12.95
2022-10-16T04:51:34.341Z,9.63
2022-10-16T04:54:19.242Z,9.80
2022-10-16T04:57:04.301Z,11.82
2022-10-16T04:59:49.659Z,15.25
2022-10-16T05:02:35.283Z,10.70
2022-10-16T05:05:20.498Z,9.43
2022-10-16T05:08:05.373Z,11.90
2022-10-16T05:10:50.132Z,8.65
2022-10-16T05:13:35.655Z,11.30
2022-10-16T05:16:21.096Z,8.20
2022-10-16T05:22:11.388Z,10.57
2022-10-16T05:24:56.387Z,11.23
2022-10-16T05:27:41.408Z,11.30
2022-10-16T05:30:26.422Z,10.45
2022-10-16T05:33:11.402Z,11.68
2022-10-16T05:35:56.199Z,9.48
2022-10-16T05:38:41.067Z,11.13
2022-10-16T05:41:26.045Z,9.25
2022-10-16T05:44:11.212Z,12.05
2022-10-16T05:46:56.050Z,12.40
2022-10-16T05:49:41.566Z,12.10
2022-10-16T05:52:28.021Z,11.38
2022-10-16T05:55:13.061Z,12.02
2022-10-16T05:57:58.029Z,13.57
2022-10-16T06:00:43.556Z,10.88
2022-10-16T06:03:28.723Z,8.77
2022-10-16T06:06:16.352Z,11.40
2022-10-16T06:09:01.657Z,12.15
2022-10-16T06:11:46.560Z,11.75
2022-10-16T06:14:31.465Z,15.68
2022-10-16T06:17:17.581Z,13.65
2022-10-16T06:20:03.151Z,13.50
2022-10-16T06:22:48.461Z,14.70
2022-10-16T06:25:33.856Z,10.38
2022-10-16T06:28:19.227Z,11.70
2022-10-16T06:31:08.297Z,13.88
2022-10-16T06:33:55.709Z,9.57
2022-10-16T06:36:41.470Z,10.13
2022-10-16T06:39:26.502Z,8.50
2022-10-16T06:42:11.563Z,11.15
2022-10-16T06:44:57.140Z,8.00
2022-10-16T06:47:42.454Z,8.27
2022-10-16T06:50:27.588Z,9.73
2022-10-16T06:53:12.782Z,11.40
2022-10-16T06:56:00.572Z,10.65
2022-10-16T06:58:46.406Z,9.45
2022-10-16T07:01:33.077Z,9.73
2022-10-16T07:04:18.391Z,7.18
2022-10-16T07:07:06.901Z,6.28
2022-10-16T07:09:55.054Z,9.18
2022-10-16T07:12:40.049Z,10.32
2022-10-16T07:15:26.638Z,12.13
2022-10-16T07:18:11.768Z,6.80
2022-10-16T07:21:04.471Z,6.50
2022-10-16T07:23:54.080Z,7.78
2022-10-16T07:26:39.709Z,6.97
2022-10-16T07:29:24.833Z,6.32
2022-10-16T07:32:09.886Z,6.22
2022-10-16T07:34:55.312Z,5.72
2022-10-16T07:37:40.180Z,7.30
2022-10-16T07:40:25.131Z,7.68
2022-10-16T07:43:10.551Z,5.78
2022-10-16T07:45:57.526Z,11.48
2022-10-16T07:48:45.400Z,6.90
2022-10-16T07:51:30.967Z,5.75
2022-10-16T07:54:16.082Z,6.15
2022-10-16T07:57:00.886Z,7.15
2022-10-16T07:59:48.982Z,4.25
2022-10-16T08:02:33.843Z,8.98
2022-10-16T08:05:18.912Z,6.43
2022-10-16T08:08:04.177Z,7.30
2022-10-16T08:10:51.354Z,6.03
2022-10-16T08:13:36.598Z,6.22
2022-10-16T08:16:22.033Z,7.50
2022-10-16T08:19:07.087Z,7.57
2022-10-16T08:21:54.126Z,5.95
2022-10-16T08:24:39.183Z,5.65
2022-10-16T08:27:25.126Z,6.72
2022-10-16T08:30:11.157Z,7.55
2022-10-16T08:32:56.238Z,6.88
2022-10-16T08:35:41.158Z,9.00
2022-10-16T08:38:26.475Z,7.25
2022-10-16T08:41:37.428Z,8.05
2022-10-16T08:44:22.359Z,6.88
2022-10-16T08:47:18.432Z,4.63
2022-10-16T08:50:11.498Z,6.78
2022-10-16T08:52:57.947Z,5.78
2022-10-16T08:55:50.834Z,4.88
2022-10-16T08:58:36.162Z,9.07
2022-10-16T09:01:24.946Z,4.28
2022-10-16T09:04:43.044Z,7.53
2022-10-16T09:07:31.221Z,9.38
2022-10-16T09:10:35.152Z,5.72
2022-10-16T09:13:49.748Z,8.55
2022-10-16T09:16:40.473Z,7.70
2022-10-16T09:19:32.425Z,5.53
2022-10-16T09:22:19.154Z,7.97
2022-10-16T09:25:13.738Z,7.25
2022-10-16T09:27:59.160Z,7.95
2022-10-16T09:30:44.557Z,6.45
2022-10-16T09:33:35.855Z,6.55
2022-10-16T09:36:22.135Z,6.65
2022-10-16T09:39:09.794Z,7.07
2022-10-16T09:41:56.836Z,7.82
2022-10-16T09:44:42.709Z,7.55
2022-10-16T09:47:30.368Z,7.07
2022-10-16T09:50:29.345Z,7.07
2022-10-16T09:53:16.104Z,5.18
2022-10-16T09:56:01.048Z,6.90
2022-10-16T09:58:51.594Z,6.43
2022-10-16T10:01:39.879Z,6.25
2022-10-16T10:04:26.171Z,5.22
2022-10-16T10:07:25.862Z,7.05
2022-10-16T10:10:29.221Z,4.32
2022-10-16T10:13:23.487Z,5.85
2022-10-16T10:16:11.164Z,6.65
2022-10-16T10:19:00.623Z,6.32
2022-10-16T10:21:46.987Z,5.65
2022-10-16T10:24:32.012Z,8.13
2022-10-16T10:27:19.605Z,4.88
2022-10-16T10:30:19.071Z,8.27
2022-10-16T10:33:13.359Z,8.70
2022-10-16T10:36:01.727Z,5.97
2022-10-16T10:38:52.104Z,6.03
2022-10-16T10:41:58.834Z,8.88
2022-10-16T10:45:18.294Z,7.60
2022-10-16T10:48:30.471Z,7.78
2022-10-16T10:51:24.649Z,6.80
2022-10-16T10:54:36.088Z,5.82
2022-10-16T10:57:44.002Z,8.82
2022-10-16T11:00:42.505Z,6.60
2022-10-16T11:03:46.441Z,7.50
2022-10-16T11:06:41.267Z,6.93
2022-10-16T11:09:37.709Z,6.60
2022-10-16T11:12:25.649Z,7.90
2022-10-16T11:15:20.127Z,7.60
2022-10-16T11:18:18.455Z,7.95
2022-10-16T11:21:12.328Z,7.53
2022-10-16T11:23:57.415Z,6.85
2022-10-16T11:26:45.855Z,4.85
2022-10-16T11:29:33.088Z,8.30
2022-10-16T11:32:24.944Z,6.47
2022-10-16T11:35:20.802Z,4.90
2022-10-16T11:38:37.754Z,3.72
2022-10-16T11:41:48.047Z,8.23
2022-10-16T11:45:00.489Z,6.53
2022-10-16T11:47:59.304Z,6.50
2022-10-16T11:50:54.865Z,5.78
2022-10-16T11:53:51.553Z,4.03
2022-10-16T11:56:42.073Z,15.57
2022-10-16T11:59:34.533Z,4.70
2022-10-16T12:02:55.838Z,4.60
2022-10-16T12:06:07.587Z,6.55
2022-10-16T12:08:54.521Z,5.45
2022-10-16T12:11:39.812Z,6.80
2022-10-16T12:14:36.943Z,4.30
2022-10-16T12:17:37.655Z,4.80
2022-10-16T12:20:31.578Z,4.95
2022-10-16T12:23:22.230Z,8.73
2022-10-16T12:26:07.354Z,5.28
2022-10-16T12:28:52.809Z,5.65
2022-10-16T12:31:49.749Z,9.48
2022-10-16T12:34:44.338Z,6.65
2022-10-16T12:37:35.854Z,7.95
2022-10-16T12:40:30.882Z,6.20
2022-10-16T12:43:26.075Z,6.13
2022-10-16T12:46:14.186Z,5.85
2022-10-16T12:49:14.401Z,6.53
2022-10-16T12:51:59.497Z,5.20
2022-10-16T12:54:44.884Z,5.45
2022-10-16T12:57:54.434Z,5.70
2022-10-16T13:00:51.692Z,6.57
2022-10-16T13:04:19.970Z,6.10
2022-10-16T13:07:23.246Z,4.68
2022-10-16T13:10:24.242Z,5.50
2022-10-16T13:13:08.937Z,5.70
2022-10-16T13:16:23.365Z,5.45
2022-10-16T13:19:14.283Z,5.05
2022-10-16T13:22:30.821Z,5.03
2022-10-16T13:25:38.905Z,4.45
2022-10-16T13:28:30.691Z,5.32
2022-10-16T13:31:22.662Z,6.03
2022-10-16T13:34:14.959Z,6.13
2022-10-16T13:37:00.465Z,6.07
2022-10-16T13:39:45.569Z,9.32
2022-10-16T13:42:30.697Z,4.00
2022-10-16T13:45:22.302Z,4.97
2022-10-16T13:48:11.426Z,6.80
2022-10-16T13:51:32.517Z,5.35
2022-10-16T13:54:17.458Z,4.10
2022-10-16T13:57:22.583Z,8.20
2022-10-16T14:00:22.845Z,5.10
2022-10-16T14:03:16.027Z,4.25
2022-10-16T14:06:03.624Z,6.65
2022-10-16T14:09:00.730Z,7.47
2022-10-16T14:11:49.971Z,6.53
2022-10-16T14:14:46.957Z,4.75
2022-10-16T14:17:35.945Z,4.60
2022-10-16T14:20:27.117Z,3.85
2022-10-16T14:23:44.605Z,4.82
2022-10-16T14:26:29.806Z,8.13
2022-10-16T14:29:18.801Z,4.32
2022-10-16T14:32:25.749Z,4.35
2022-10-16T14:35:31.567Z,6.90
2022-10-16T14:38:20.881Z,5.82
2022-10-16T14:41:07.075Z,6.57
2022-10-16T14:43:57.964Z,5.28
2022-10-16T14:46:44.682Z,2.25
2022-10-16T14:49:30.291Z,7.15
2022-10-16T14:52:15.450Z,5.10
2022-10-16T14:55:00.508Z,7.60
2022-10-16T14:57:46.680Z,5.03
2022-10-16T15:00:32.152Z,8.80
2022-10-16T15:03:17.293Z,5.53
2022-10-16T15:06:02.856Z,5.78
2022-10-16T15:08:48.160Z,5.13
2022-10-16T15:11:34.086Z,7.57
2022-10-16T15:14:19.142Z,5.35
2022-10-16T15:17:04.218Z,6.85
2022-10-16T15:19:49.761Z,6.30
2022-10-16T15:22:35.135Z,3.78
2022-10-16T15:25:43.205Z,6.95
2022-10-16T15:28:30.512Z,51.83
2022-10-16T15:31:20.092Z,6.57
2022-10-16T15:34:06.153Z,8.00
2022-10-16T15:36:51.309Z,6.47
2022-10-16T15:39:41.240Z,10.23
2022-10-16T15:42:26.927Z,14.30
2022-10-16T15:45:13.686Z,6.25
2022-10-16T15:47:58.969Z,5.05
2022-10-16T15:53:29.369Z,8.15
2022-10-16T15:56:15.601Z,13.50
2022-10-16T15:59:01.454Z,6.53
2022-10-16T16:01:47.079Z,8.68
2022-10-16T16:04:43.545Z,7.35
2022-10-16T16:07:29.621Z,7.60
2022-10-16T16:10:15.696Z,9.45
2022-10-16T16:13:00.990Z,7.63
2022-10-16T16:15:46.312Z,11.27
2022-10-16T16:18:31.370Z,8.70
2022-10-16T16:21:16.791Z,15.02
2022-10-16T16:24:02.334Z,14.52
2022-10-16T16:26:47.450Z,9.80
2022-10-16T16:29:32.704Z,10.15
2022-10-16T16:32:17.637Z,10.20
2022-10-16T16:35:03.996Z,10.30
2022-10-16T16:37:49.460Z,19.85
2022-10-16T16:40:34.556Z,12.38
2022-10-16T16:43:23.131Z,7.82
2022-10-16T16:46:08.651Z,8.48
2022-10-16T16:48:53.796Z,10.68
2022-10-16T16:51:40.647Z,12.07
2022-10-16T16:54:26.358Z,9.65
2022-10-16T16:57:11.665Z,10.23
2022-10-16T16:59:56.683Z,10.52
2022-10-16T17:02:41.963Z,14.02
2022-10-16T17:05:27.451Z,16.98
2022-10-16T17:08:12.510Z,11.60
2022-10-16T17:10:58.469Z,9.82
2022-10-16T17:13:44.095Z,10.38
2022-10-16T17:16:35.041Z,10.63
2022-10-16T17:19:20.820Z,12.55
2022-10-16T17:22:06.047Z,13.50
2022-10-16T17:24:51.612Z,13.25
2022-10-16T17:27:36.807Z,12.38
2022-10-16T17:30:24.810Z,12.25
2022-10-16T17:33:11.391Z,15.70
2022-10-16T17:36:00.067Z,12.68
2022-10-16T17:38:46.196Z,14.13
2022-10-16T17:41:33.168Z,13.02
2022-10-16T17:44:18.675Z,12.32
2022-10-16T17:47:03.768Z,15.27
2022-10-16T17:49:48.878Z,15.35
2022-10-16T17:52:34.082Z,16.52
2022-10-16T17:55:26.354Z,12.48
2022-10-16T17:58:12.365Z,14.38
2022-10-16T18:00:57.489Z,14.30
2022-10-16T18:03:42.641Z,15.82
2022-10-16T18:06:28.755Z,14.98
2022-10-16T18:09:16.204Z,14.32
2022-10-16T18:12:01.574Z,13.00
2022-10-16T18:14:46.826Z,14.70
2022-10-16T18:17:32.152Z,14.38
2022-10-16T18:20:17.782Z,24.20
2022-10-16T18:23:03.080Z,17.02
2022-10-16T18:25:51.730Z,20.45
2022-10-16T18:28:37.133Z,17.83
2022-10-16T18:31:23.374Z,17.90
2022-10-16T18:34:08.511Z,17.10
2022-10-16T18:36:55.081Z,20.42
2022-10-16T18:39:40.669Z,17.77
2022-10-16T18:42:26.258Z,22.58
2022-10-16T18:45:11.526Z,18.30
2022-10-16T18:47:56.799Z,19.27
2022-10-16T18:50:42.239Z,19.38
2022-10-16T18:56:19.560Z,22.52
2022-10-16T18:59:06.901Z,18.92
2022-10-16T19:01:52.269Z,17.95
2022-10-16T19:04:37.914Z,18.00
2022-10-16T19:07:22.981Z,18.23
2022-10-16T19:10:08.463Z,16.40
2022-10-16T19:12:53.800Z,16.23
2022-10-16T19:15:44.464Z,14.02
2022-10-16T19:18:32.178Z,13.38
2022-10-16T19:21:17.830Z,12.02
2022-10-16T19:24:04.128Z,13.35
2022-10-16T19:26:49.308Z,12.98
2022-10-16T19:29:34.636Z,13.52
2022-10-16T19:32:19.558Z,17.85
2022-10-16T19:35:05.257Z,10.32
2022-10-16T19:37:50.670Z,9.05
2022-10-16T19:40:35.542Z,9.82
2022-10-16T19:43:20.443Z,10.02
2022-10-16T19:46:07.785Z,9.85
2022-10-16T19:49:06.074Z,14.00
2022-10-16T19:51:51.574Z,13.18
2022-10-16T19:54:37.847Z,12.95
2022-10-16T19:57:27.377Z,12.27
2022-10-16T20:00:13.083Z,12.95
2022-10-16T20:02:58.122Z,13.35
2022-10-16T20:05:56.649Z,17.50
2022-10-16T20:08:43.256Z,13.25
2022-10-16T20:11:31.544Z,12.88
2022-10-16T20:14:16.722Z,10.63
2022-10-16T20:17:01.690Z,11.20
2022-10-16T20:19:47.368Z,10.00
2022-10-16T20:22:32.631Z,15.02
2022-10-16T20:25:19.147Z,13.55
2022-10-16T20:28:06.041Z,12.55
2022-10-16T20:30:51.328Z,8.70
2022-10-16T20:33:36.896Z,10.50
2022-10-16T20:36:24.609Z,11.90
2022-10-16T20:39:10.865Z,18.23
2022-10-16T20:41:55.835Z,11.73
2022-10-16T20:44:40.649Z,13.25
2022-10-16T20:47:26.509Z,16.60
2022-10-16T20:50:12.086Z,12.15
2022-10-16T20:52:58.211Z,12.55
2022-10-16T20:55:43.569Z,11.73
2022-10-16T20:58:28.401Z,10.88
2022-10-16T21:01:22.136Z,12.20
2022-10-16T21:04:08.852Z,11.50
2022-10-16T21:06:53.942Z,13.48
2022-10-16T21:09:38.822Z,12.40
2022-10-16T21:12:25.219Z,14.88
2022-10-16T21:15:15.394Z,16.33
2022-10-16T21:18:00.549Z,11.40
2022-10-16T21:20:45.961Z,13.50
2022-10-16T21:23:32.047Z,14.45
2022-10-16T21:26:18.625Z,15.25
2022-10-16T21:29:06.808Z,13.13
2022-10-16T21:31:52.327Z,12.55
2022-10-16T21:34:37.617Z,14.13
2022-10-16T21:37:22.761Z,16.27
2022-10-16T21:40:08.778Z,12.13
2022-10-16T21:42:54.029Z,12.52
2022-10-16T21:45:39.448Z,12.52
2022-10-16T21:48:24.270Z,10.25
2022-10-16T21:51:11.480Z,13.30
2022-10-16T21:53:56.960Z,14.20
2022-10-16T21:56:42.195Z,12.95
2022-10-16T21:59:27.616Z,14.65
2022-10-16T22:02:12.546Z,15.50
2022-10-16T22:04:57.686Z,15.23
2022-10-16T22:07:42.888Z,14.48
2022-10-16T22:10:27.734Z,15.55
2022-10-16T22:13:12.697Z,13.77
2022-10-16T22:15:57.639Z,16.52
2022-10-16T22:18:42.922Z,13.52
2022-10-16T22:21:29.255Z,16.00
2022-10-16T22:24:17.918Z,12.80
2022-10-16T22:27:02.889Z,12.82
2022-10-16T22:29:51.609Z,14.35
2022-10-16T22:32:36.930Z,12.30
2022-10-16T22:35:21.694Z,11.50
2022-10-16T22:38:06.875Z,13.18
2022-10-16T22:40:52.090Z,12.05
2022-10-16T22:43:39.285Z,11.23
2022-10-16T22:46:30.240Z,10.73
2022-10-16T22:49:15.547Z,11.35
2022-10-16T22:52:00.593Z,17.83
2022-10-16T22:54:46.090Z,11.57
2022-10-16T22:57:31.278Z,13.90
2022-10-16T23:00:19.610Z,16.08
2022-10-16T23:03:04.876Z,17.30
2022-10-16T23:05:50.528Z,12.90
2022-10-16T23:08:35.853Z,13.88
2022-10-16T23:11:21.405Z,16.67
2022-10-16T23:14:06.521Z,12.82
2022-10-16T23:16:51.823Z,13.35
2022-10-16T23:19:36.770Z,13.68
2022-10-16T23:22:21.921Z,14.60
2022-10-16T23:25:07.087Z,13.60
2022-10-16T23:27:55.615Z,12.40
2022-10-16T23:30:40.819Z,13.38
2022-10-16T23:33:25.913Z,14.13
2022-10-16T23:36:14.254Z,16.42
2022-10-16T23:38:59.704Z,17.38
2022-10-16T23:41:44.629Z,16.98
2022-10-16T23:44:29.896Z,14.30
2022-10-16T23:47:14.924Z,15.77
2022-10-16T23:50:00.294Z,15.10
2022-10-16T23:52:45.199Z,16.83
2022-10-16T23:55:30.229Z,13.95
2022-10-16T23:58:15.903Z,16.50
